Time;durP1;ratioP1;P1;durP2;ratioP2;P2;SDS_P1;SDS_P2;PMS_P1;PMS_P2;Temp;Humidity;BMP_temperature;BMP_pressure;BME280_temperature;BME280_humidity;BME280_pressure;Samples;Min_cycle;Max_cycle;Signal;HPM_P1;HPM_P2
2023/01/09 00:00:46;;;;;;;;;;;;;;;10.52;73.56;102163.16;5069655;28;19916;-84
2023/01/09 00:03:12;;;;;;;;;;;;;;;10.54;73.73;102171.06;5087003;28;20513;-84
2023/01/09 00:05:37;;;;;;;;;;;;;;;10.57;73.25;102172.22;5082697;28;19924;-84
2023/01/09 00:08:03;;;;;;;;;;;;;;;10.54;73.22;102161.56;5074329;28;20413;-84
2023/01/09 00:10:28;;;;;;;;;;;;;;;10.52;73.96;102164.81;5074413;28;19946;-82
2023/01/09 00:12:53;;;;;;;;;;;;;;;10.53;73.48;102164.03;5074358;28;19916;-82
2023/01/09 00:15:19;;;;;;;;;;;;;;;10.55;73.34;102154.63;5074376;28;20398;-84
2023/01/09 00:17:46;;;;;;;;;;;;;;;10.54;73.57;102156.34;5074103;28;19927;-84
2023/01/09 00:20:12;;;;;;;;;;;;;;;10.52;73.76;102170.03;5074099;28;19916;-84
2023/01/09 00:22:38;;;;;;;;;;;;;;;10.51;73.87;102150.84;5078158;28;20282;-84
2023/01/09 00:25:04;;;;;;;;;;;;;;;10.53;73.46;102151.00;5074257;28;19948;-83
2023/01/09 00:27:31;;;;;;;;;;;;;;;10.53;73.54;102153.59;5087091;28;19913;-82
2023/01/09 00:29:56;;;;;;;;;;;;;;;10.60;73.52;102150.66;5081829;28;19917;-83
2023/01/09 00:32:22;;;;;;;;;;;;;;;10.52;73.51;102143.94;5070953;28;20402;-83
2023/01/09 00:34:47;;;;;;;;;;;;;;;10.56;73.39;102143.38;5055871;28;19933;-83
2023/01/09 00:37:13;;;;;;;;;;;;;;;10.58;73.44;102152.22;5074057;28;20401;-84
2023/01/09 00:39:38;;;;;;;;;;;;;;;10.54;73.50;102147.56;5073315;28;20390;-84
2023/01/09 00:42:04;;;;;;;;;;;;;;;10.53;73.88;102148.38;5085000;28;19917;-83
2023/01/09 00:44:38;;;;;;;;;;;;;;;10.55;73.87;102144.19;5064325;28;19924;-82
2023/01/09 00:47:09;;;;;;;;;;;;;;;10.56;73.52;102143.38;5057314;28;19917;-83
2023/01/09 00:49:35;;;;;;;;;;;;;;;10.55;73.92;102142.47;5075695;28;19920;-83
2023/01/09 00:52:00;;;;;;;;;;;;;;;10.55;73.56;102133.72;5055107;28;19982;-82
2023/01/09 00:54:26;;;;;;;;;;;;;;;10.62;72.91;102136.00;5075528;28;19920;-83
2023/01/09 00:56:51;;;;;;;;;;;;;;;10.57;73.32;102138.28;5077831;28;19930;-83
2023/01/09 00:59:17;;;;;;;;;;;;;;;10.53;73.44;102132.69;5078715;28;19925;-83
2023/01/09 01:01:42;;;;;;;;;;;;;;;10.52;73.54;102131.81;5072983;28;20367;-83
2023/01/09 01:09:37;;;;;;;;;;;;;;;10.49;73.55;102126.31;5071358;28;19927;-82
2023/01/09 01:12:05;;;;;;;;;;;;;;;10.56;73.43;102118.19;5080479;28;20007;-82
2023/01/09 01:14:34;;;;;;;;;;;;;;;10.55;73.51;102112.84;5065266;28;20309;-83
2023/01/09 01:17:00;;;;;;;;;;;;;;;10.53;73.67;102115.31;5072309;28;20412;-82
2023/01/09 01:19:25;;;;;;;;;;;;;;;10.51;73.54;102114.28;5061060;28;19920;-84
2023/01/09 01:21:51;;;;;;;;;;;;;;;10.58;73.04;102115.66;5067483;28;19923;-84
2023/01/09 01:24:18;;;;;;;;;;;;;;;10.53;73.20;102106.59;5055087;28;19935;-83
2023/01/09 01:26:44;;;;;;;;;;;;;;;10.50;73.25;102106.38;5081316;28;19917;-83
2023/01/09 01:29:09;;;;;;;;;;;;;;;10.51;73.40;102096.00;5068145;28;20450;-83
2023/01/09 01:31:35;;;;;;;;;;;;;;;10.49;73.64;102087.16;5073055;28;19917;-83
2023/01/09 01:34:00;;;;;;;;;;;;;;;10.47;73.40;102082.63;5080626;28;20342;-83
2023/01/09 01:36:26;;;;;;;;;;;;;;;10.50;73.29;102077.63;5072303;28;19920;-83
2023/01/09 01:38:51;;;;;;;;;;;;;;;10.55;73.34;102084.09;5072493;28;19924;-84
2023/01/09 01:41:28;;;;;;;;;;;;;;;10.48;73.54;102074.91;5072595;28;20413;-83
2023/01/09 01:43:54;;;;;;;;;;;;;;;10.51;73.45;102062.06;5073052;28;19981;-84
2023/01/09 01:46:20;;;;;;;;;;;;;;;10.51;73.48;102055.94;5072636;28;19940;-83
2023/01/09 01:48:47;;;;;;;;;;;;;;;10.51;73.28;102049.00;5083717;28;20389;-84
2023/01/09 01:51:14;;;;;;;;;;;;;;;10.53;73.00;102052.63;5086398;28;19924;-83
2023/01/09 01:53:50;;;;;;;;;;;;;;;10.54;73.04;102051.84;5084013;28;19917;-83
2023/01/09 01:56:15;;;;;;;;;;;;;;;10.51;73.50;102050.72;5070678;28;19939;-83
2023/01/09 01:58:42;;;;;;;;;;;;;;;10.48;73.25;102051.41;5089567;28;20464;-83
2023/01/09 02:01:07;;;;;;;;;;;;;;;10.48;73.12;102050.50;5079696;28;20463;-83
2023/01/09 02:03:33;;;;;;;;;;;;;;;10.48;73.37;102048.78;5059519;28;19920;-83
2023/01/09 02:05:58;;;;;;;;;;;;;;;10.50;73.54;102035.84;5068636;28;20456;-84
2023/01/09 02:08:24;;;;;;;;;;;;;;;10.54;73.12;102033.56;5071487;28;19978;-83
2023/01/09 02:10:49;;;;;;;;;;;;;;;10.49;73.45;102032.31;5043028;28;20383;-83
2023/01/09 02:13:15;;;;;;;;;;;;;;;10.46;73.08;102037.31;5089182;28;19934;-83
2023/01/09 02:15:59;;;;;;;;;;;;;;;10.48;73.08;102032.22;5091822;28;19916;-83
2023/01/09 02:18:24;;;;;;;;;;;;;;;10.44;73.63;102025.84;5084993;28;19951;-83
2023/01/09 02:20:50;;;;;;;;;;;;;;;10.47;73.14;102031.28;5071423;28;19963;-83
2023/01/09 02:23:27;;;;;;;;;;;;;;;10.48;73.27;102029.59;5070945;28;20393;-83
2023/01/09 02:25:56;;;;;;;;;;;;;;;10.48;73.30;102025.28;5071015;28;19921;-83
2023/01/09 02:28:34;;;;;;;;;;;;;;;10.50;73.06;102021.06;5076789;28;20317;-83
2023/01/09 02:31:10;;;;;;;;;;;;;;;10.49;73.01;102015.72;5077822;28;20425;-83
2023/01/09 02:33:41;;;;;;;;;;;;;;;10.47;73.54;102009.50;5083175;28;19927;-83
2023/01/09 02:36:11;;;;;;;;;;;;;;;10.45;73.36;102011.97;5076700;28;19917;-83
2023/01/09 02:38:46;;;;;;;;;;;;;;;10.45;73.55;102008.47;5056339;28;20352;-83
2023/01/09 02:41:41;;;;;;;;;;;;;;;10.54;73.32;102011.75;5076818;28;20394;-83
2023/01/09 02:44:26;;;;;;;;;;;;;;;10.47;73.11;102009.50;5064552;28;20015;-83
2023/01/09 02:47:02;;;;;;;;;;;;;;;10.47;73.33;102006.88;5084638;28;20367;-82
2023/01/09 02:49:27;;;;;;;;;;;;;;;10.45;73.29;102004.13;5083854;28;19959;-82
2023/01/09 02:51:53;;;;;;;;;;;;;;;10.47;73.45;102010.38;5069853;28;19955;-83
2023/01/09 02:54:31;;;;;;;;;;;;;;;10.48;73.11;102009.59;5052911;28;19948;-82
2023/01/09 02:57:15;;;;;;;;;;;;;;;10.48;73.29;101999.16;5078599;28;20450;-83
2023/01/09 02:59:44;;;;;;;;;;;;;;;10.49;73.28;102003.56;5063918;28;19923;-83
2023/01/09 03:02:10;;;;;;;;;;;;;;;10.46;73.19;102005.97;5085244;28;20423;-83
2023/01/09 03:04:54;;;;;;;;;;;;;;;10.51;73.14;102006.31;5070727;28;19917;-83
2023/01/09 03:07:34;;;;;;;;;;;;;;;10.46;73.58;102005.97;5070606;28;19923;-83
2023/01/09 03:10:18;;;;;;;;;;;;;;;10.46;73.04;102000.75;5068869;28;20408;-83
2023/01/09 03:12:44;;;;;;;;;;;;;;;10.47;73.21;102009.50;5068506;28;19916;-83
2023/01/09 03:15:10;;;;;;;;;;;;;;;10.48;73.50;102003.47;5083709;28;19916;-83
2023/01/09 03:17:39;;;;;;;;;;;;;;;10.44;73.45;102007.56;5086706;28;19942;-83
2023/01/09 03:20:05;;;;;;;;;;;;;;;10.41;73.65;101999.47;5053036;28;19916;-82
2023/01/09 03:22:31;;;;;;;;;;;;;;;10.40;73.51;102002.91;5084764;28;19916;-83
2023/01/09 03:24:56;;;;;;;;;;;;;;;10.45;73.14;102005.84;5070921;28;19923;-83
2023/01/09 03:27:22;;;;;;;;;;;;;;;10.44;73.56;101998.81;5088327;28;20054;-84
2023/01/09 03:29:47;;;;;;;;;;;;;;;10.46;73.28;102005.97;5084649;28;20409;-83
2023/01/09 03:32:12;;;;;;;;;;;;;;;10.47;73.32;102006.88;5069098;28;19916;-84
2023/01/09 03:34:38;;;;;;;;;;;;;;;10.46;73.30;102012.91;5079165;28;20420;-84
2023/01/09 03:37:03;;;;;;;;;;;;;;;10.46;73.45;102010.31;5083152;28;19920;-83
2023/01/09 03:39:29;;;;;;;;;;;;;;;10.47;73.21;102009.50;5067999;28;20316;-83
2023/01/09 03:41:55;;;;;;;;;;;;;;;10.43;73.64;102004.81;5073089;28;20047;-83
2023/01/09 03:44:20;;;;;;;;;;;;;;;10.46;73.25;102008.59;5053736;28;19920;-84
2023/01/09 03:46:46;;;;;;;;;;;;;;;10.42;73.45;102010.88;5069377;28;20003;-83
2023/01/09 03:49:12;;;;;;;;;;;;;;;10.39;73.62;102009.84;5068465;28;20321;-83
2023/01/09 03:51:38;;;;;;;;;;;;;;;10.40;73.65;102008.13;5072708;28;19978;-83
2023/01/09 03:54:03;;;;;;;;;;;;;;;10.37;73.30;102006.19;5070923;28;19920;-83
2023/01/09 03:56:28;;;;;;;;;;;;;;;10.42;73.30;102010.88;5082247;28;20304;-84
2023/01/09 03:58:54;;;;;;;;;;;;;;;10.40;73.65;102010.75;5065649;28;19920;-84
2023/01/09 04:01:19;;;;;;;;;;;;;;;10.39;73.68;102020.28;5048987;28;20453;-83
2023/01/09 04:03:45;;;;;;;;;;;;;;;10.41;73.58;102019.47;5070849;28;20367;-84
2023/01/09 04:06:10;;;;;;;;;;;;;;;10.41;73.53;102020.38;5085375;28;20320;-83
2023/01/09 04:08:38;;;;;;;;;;;;;;;10.42;73.22;102019.59;5072870;28;19948;-84
2023/01/09 04:11:03;;;;;;;;;;;;;;;10.38;73.69;102015.84;5080428;28;19967;-83
2023/01/09 04:13:30;;;;;;;;;;;;;;;10.36;73.42;102009.59;5083575;28;20393;-84
2023/01/09 04:15:55;;;;;;;;;;;;;;;10.37;73.60;102021.88;5054005;28;19913;-84
2023/01/09 04:18:21;;;;;;;;;;;;;;;10.37;73.84;102019.25;5067139;28;19921;-83
2023/01/09 04:20:46;;;;;;;;;;;;;;;10.33;73.89;102016.31;5071426;28;19913;-83
2023/01/09 04:23:12;;;;;;;;;;;;;;;10.36;73.60;102012.19;5085465;28;19920;-84
2023/01/09 04:25:37;;;;;;;;;;;;;;;10.36;73.73;102017.44;5055033;28;19925;-83
2023/01/09 04:28:03;;;;;;;;;;;;;;;10.40;73.62;102015.97;5070266;28;20452;-84
2023/01/09 04:30:28;;;;;;;;;;;;;;;10.39;73.72;102021.97;5059373;28;20421;-83
2023/01/09 04:32:54;;;;;;;;;;;;;;;10.37;73.64;102018.31;5080031;28;20004;-84
2023/01/09 04:35:19;;;;;;;;;;;;;;;10.35;73.79;102010.41;5050502;28;19956;-84
2023/01/09 04:37:45;;;;;;;;;;;;;;;10.36;73.62;102019.13;5062735;28;19921;-84
2023/01/09 04:40:11;;;;;;;;;;;;;;;10.36;73.80;102024.34;5082257;28;19916;-84
2023/01/09 04:42:39;;;;;;;;;;;;;;;10.36;73.85;102020.03;5081548;28;20007;-84
2023/01/09 04:45:05;;;;;;;;;;;;;;;10.37;73.39;102019.25;5065043;28;20385;-84
2023/01/09 04:47:31;;;;;;;;;;;;;;;10.36;73.65;102016.53;5057611;28;19920;-82
2023/01/09 04:49:57;;;;;;;;;;;;;;;10.36;73.38;102021.75;5072441;28;19943;-82
2023/01/09 04:52:22;;;;;;;;;;;;;;;10.33;73.90;102019.81;5086040;28;20333;-83
2023/01/09 04:54:48;;;;;;;;;;;;;;;10.32;73.38;102015.38;5073054;28;19925;-82
2023/01/09 04:57:13;;;;;;;;;;;;;;;10.33;73.72;102019.81;5073354;28;20425;-82
2023/01/09 04:59:38;;;;;;;;;;;;;;;10.33;73.61;102024.16;5089505;28;20374;-82
2023/01/09 05:02:04;;;;;;;;;;;;;;;10.35;73.55;102019.91;5073052;28;20271;-84
2023/01/09 05:04:29;;;;;;;;;;;;;;;10.34;73.46;102020.72;5073550;28;20749;-83
2023/01/09 05:06:55;;;;;;;;;;;;;;;10.32;73.46;102018.00;5073125;28;20437;-83
2023/01/09 05:09:21;;;;;;;;;;;;;;;10.32;73.95;102011.88;5086142;28;20313;-83
2023/01/09 05:11:46;;;;;;;;;;;;;;;10.34;73.74;102013.78;5073163;28;20531;-83
2023/01/09 05:14:12;;;;;;;;;;;;;;;10.32;73.83;102009.25;5088239;28;19921;-83
2023/01/09 05:16:37;;;;;;;;;;;;;;;10.33;73.67;102013.69;5070038;28;20409;-82
2023/01/09 05:19:02;;;;;;;;;;;;;;;10.30;73.80;102003.00;5084816;28;19964;-82
2023/01/09 05:21:28;;;;;;;;;;;;;;;10.31;73.77;102004.84;5087819;28;19916;-83
2023/01/09 05:23:53;;;;;;;;;;;;;;;10.28;73.89;102004.56;5073134;28;19943;-82
2023/01/09 05:26:22;;;;;;;;;;;;;;;10.31;73.81;102008.34;5076356;28;19939;-82
2023/01/09 05:28:48;;;;;;;;;;;;;;;10.28;73.63;102007.16;5072395;28;19928;-82
2023/01/09 05:31:14;;;;;;;;;;;;;;;10.29;73.75;102002.09;5076925;28;20002;-82
2023/01/09 05:33:39;;;;;;;;;;;;;;;10.29;73.93;102007.31;5059814;28;19991;-82
2023/01/09 05:36:05;;;;;;;;;;;;;;;10.26;73.95;102003.53;5097441;28;19916;-82
2023/01/09 05:38:30;;;;;;;;;;;;;;;10.27;73.89;101998.44;5085431;28;20413;-82
2023/01/09 05:40:56;;;;;;;;;;;;;;;10.26;73.73;101995.69;5072568;28;20019;-83
2023/01/09 05:43:21;;;;;;;;;;;;;;;10.24;73.90;102006.03;5058673;28;20055;-87
2023/01/09 05:45:46;;;;;;;;;;;;;;;10.25;73.56;102005.25;5083267;28;20461;-83
2023/01/09 05:48:12;;;;;;;;;;;;;;;10.23;73.70;102005.94;5076688;28;20416;-83
2023/01/09 05:50:37;;;;;;;;;;;;;;;10.21;74.04;102002.28;5059060;28;20379;-83
2023/01/09 05:53:03;;;;;;;;;;;;;;;10.18;74.12;101998.66;5072363;28;20378;-83
2023/01/09 05:55:28;;;;;;;;;;;;;;;10.21;74.02;102007.50;5075450;28;20372;-83
2023/01/09 05:57:53;;;;;;;;;;;;;;;10.20;74.09;102009.19;5072371;28;20394;-83
2023/01/09 06:00:19;;;;;;;;;;;;;;;10.20;73.77;102011.81;5071344;28;19920;-82
2023/01/09 06:02:44;;;;;;;;;;;;;;;10.22;73.90;102009.31;5072111;28;20401;-83
2023/01/09 06:05:10;;;;;;;;;;;;;;;10.18;73.71;102006.50;5072573;28;19973;-83
2023/01/09 06:07:38;;;;;;;;;;;;;;;10.21;73.89;102012.75;5083798;28;20431;-83
2023/01/09 06:10:04;;;;;;;;;;;;;;;10.20;74.00;102009.19;5053327;28;19916;-83
2023/01/09 06:12:29;;;;;;;;;;;;;;;10.21;73.71;102002.28;5075009;28;19916;-82
2023/01/09 06:14:55;;;;;;;;;;;;;;;10.18;74.01;102009.09;5086110;28;20425;-82
2023/01/09 06:17:20;;;;;;;;;;;;;;;10.17;73.93;102004.66;5088530;28;20329;-82
2023/01/09 06:19:46;;;;;;;;;;;;;;;10.16;73.92;102004.56;5080552;28;19966;-83
2023/01/09 06:22:11;;;;;;;;;;;;;;;10.18;73.77;102001.28;5071893;28;20301;-82
2023/01/09 06:24:36;;;;;;;;;;;;;;;10.16;73.98;102005.47;5053809;28;19920;-84
2023/01/09 06:27:02;;;;;;;;;;;;;;;10.18;74.04;102005.56;5079592;28;19931;-85
2023/01/09 06:29:27;;;;;;;;;;;;;;;10.17;73.73;102004.66;5070891;28;20361;-83
2023/01/09 06:31:53;;;;;;;;;;;;;;;10.16;73.78;102001.94;5062992;28;19916;-84
2023/01/09 06:34:18;;;;;;;;;;;;;;;10.19;73.83;102010.00;5088468;28;19927;-84
2023/01/09 06:36:44;;;;;;;;;;;;;;;10.17;73.77;102004.66;5071600;28;20611;-84
2023/01/09 06:39:09;;;;;;;;;;;;;;;10.18;73.70;102002.94;5052686;28;20341;-84
2023/01/09 06:41:36;;;;;;;;;;;;;;;10.15;74.17;101998.41;5086745;28;19947;-84
2023/01/09 06:44:01;;;;;;;;;;;;;;;10.18;73.84;102000.34;5074762;28;19923;-83
2023/01/09 06:46:26;;;;;;;;;;;;;;;10.17;73.78;102003.75;5087386;28;20019;-83
2023/01/09 06:48:52;;;;;;;;;;;;;;;10.15;73.90;102008.84;5098864;28;20424;-83
2023/01/09 06:51:17;;;;;;;;;;;;;;;10.16;73.74;102013.28;5089003;28;20404;-83
2023/01/09 06:53:43;;;;;;;;;;;;;;;10.15;74.00;102006.25;5060415;28;20393;-84
2023/01/09 06:56:08;;;;;;;;;;;;;;;10.15;74.24;102011.47;5071195;28;20395;-84
2023/01/09 06:58:33;;;;;;;;;;;;;;;10.18;74.05;102014.31;5064736;28;19920;-83
2023/01/09 07:00:59;;;;;;;;;;;;;;;10.15;74.13;102014.06;5085021;28;19999;-83
2023/01/09 07:03:24;;;;;;;;;;;;;;;10.17;73.67;102009.88;5092785;28;20389;-83
2023/01/09 07:05:50;;;;;;;;;;;;;;;10.13;73.78;102002.59;5078967;28;20508;-83
2023/01/09 07:08:15;;;;;;;;;;;;;;;10.15;74.01;102007.94;5086503;28;19912;-84
2023/01/09 07:10:41;;;;;;;;;;;;;;;10.15;74.11;102005.34;5094443;28;20445;-83
2023/01/09 07:13:06;;;;;;;;;;;;;;;10.17;73.76;102002.03;5070441;28;19912;-83
2023/01/09 07:15:32;;;;;;;;;;;;;;;10.14;74.21;102004.44;5086403;28;20377;-84
2023/01/09 07:17:58;;;;;;;;;;;;;;;10.16;73.91;102005.47;5088165;28;19924;-84
2023/01/09 07:20:23;;;;;;;;;;;;;;;10.15;74.13;102008.84;5097894;28;20050;-84
2023/01/09 07:22:48;;;;;;;;;;;;;;;10.16;73.96;102005.47;5070091;28;19916;-84
2023/01/09 07:25:14;;;;;;;;;;;;;;;10.16;74.11;102005.47;5054470;28;19988;-83
2023/01/09 07:27:39;;;;;;;;;;;;;;;10.14;74.00;102004.44;5065773;28;20416;-86
2023/01/09 07:30:05;;;;;;;;;;;;;;;10.17;73.90;102011.59;5099780;28;19916;-86
2023/01/09 07:32:31;;;;;;;;;;;;;;;10.15;73.88;102007.94;5068962;28;20364;-84
2023/01/09 07:34:56;;;;;;;;;;;;;;;10.15;74.17;102002.72;5073679;28;19920;-83
2023/01/09 07:37:22;;;;;;;;;;;;;;;10.18;73.94;102008.16;5070626;28;20641;-84
2023/01/09 07:39:47;;;;;;;;;;;;;;;10.17;73.94;102004.66;5086313;28;19916;-84
2023/01/09 07:42:13;;;;;;;;;;;;;;;10.16;74.10;102001.94;5078563;28;19912;-85
2023/01/09 07:44:38;;;;;;;;;;;;;;;10.16;73.72;102009.78;5063594;28;20368;-85
2023/01/09 07:47:03;;;;;;;;;;;;;;;10.17;73.83;102003.75;5073460;28;19956;-85
2023/01/09 07:49:29;;;;;;;;;;;;;;;10.19;73.72;101996.94;5085968;28;20405;-84
2023/01/09 07:51:54;;;;;;;;;;;;;;;10.18;73.90;101996.03;5070544;28;20281;-84
2023/01/09 07:54:20;;;;;;;;;;;;;;;10.18;73.67;101997.72;5086297;28;19912;-84
2023/01/09 07:56:45;;;;;;;;;;;;;;;10.21;74.05;101995.38;5070656;28;20382;-84
2023/01/09 07:59:10;;;;;;;;;;;;;;;10.17;73.77;101994.22;5086218;28;19944;-83
2023/01/09 08:01:36;;;;;;;;;;;;;;;10.19;73.72;101996.94;5070571;28;19912;-83
2023/01/09 08:04:01;;;;;;;;;;;;;;;10.18;73.69;101998.66;5076342;28;20294;-83
2023/01/09 08:06:27;;;;;;;;;;;;;;;10.19;73.90;101995.25;5096281;28;19916;-83
2023/01/09 08:08:52;;;;;;;;;;;;;;;10.20;73.82;101993.53;5073207;28;19959;-84
2023/01/09 08:11:18;;;;;;;;;;;;;;;10.17;73.91;101983.78;5080758;28;20062;-85
2023/01/09 08:13:43;;;;;;;;;;;;;;;10.20;73.91;101983.09;5086442;28;19920;-85
2023/01/09 08:16:09;;;;;;;;;;;;;;;10.19;73.68;101986.50;5085816;28;19912;-85
2023/01/09 08:18:34;;;;;;;;;;;;;;;10.23;73.56;101985.03;5059273;28;19922;-85
2023/01/09 08:20:59;;;;;;;;;;;;;;;10.23;73.59;101985.03;5075630;28;19919;-84
2023/01/09 08:23:25;;;;;;;;;;;;;;;10.21;73.75;101981.41;5087948;28;19931;-85
2023/01/09 08:25:52;;;;;;;;;;;;;;;10.22;73.58;101983.22;5074216;28;20370;-85
2023/01/09 08:28:17;;;;;;;;;;;;;;;10.24;73.49;101986.84;5092555;28;19920;-85
2023/01/09 08:30:43;;;;;;;;;;;;;;;10.27;73.63;101981.88;5078852;28;19912;-84
2023/01/09 08:33:08;;;;;;;;;;;;;;;10.30;73.56;101980.41;5089468;28;19922;-84
2023/01/09 08:35:34;;;;;;;;;;;;;;;10.31;73.61;101981.34;5072880;28;19924;-85
2023/01/09 08:37:59;;;;;;;;;;;;;;;10.25;73.46;101980.84;5073866;28;19917;-85
2023/01/09 08:40:25;;;;;;;;;;;;;;;10.27;73.72;101977.56;5072753;28;19923;-84
2023/01/09 08:48:18;;;;;;;;;;;;;;;10.26;73.42;101962.66;5073906;28;19974;-84
2023/01/09 08:50:44;;;;;;;;;;;;;;;10.28;73.38;101963.69;5089539;28;19912;-84
2023/01/09 08:53:09;;;;;;;;;;;;;;;10.32;73.48;101957.03;5089057;28;19913;-84
2023/01/09 08:55:35;;;;;;;;;;;;;;;10.30;73.39;101948.19;5088788;28;20397;-84
2023/01/09 08:58:00;;;;;;;;;;;;;;;10.29;73.54;101948.97;5073655;28;19971;-84
2023/01/09 09:00:26;;;;;;;;;;;;;;;10.29;73.41;101939.44;5089000;28;20397;-84
2023/01/09 09:02:52;;;;;;;;;;;;;;;10.29;73.79;101939.44;5073710;28;19965;-86
2023/01/09 09:05:17;;;;;;;;;;;;;;;10.31;73.36;101935.25;5089421;28;19955;-84
2023/01/09 09:07:43;;;;;;;;;;;;;;;10.29;73.39;101935.91;5089283;28;20411;-84
2023/01/09 09:10:08;;;;;;;;;;;;;;;10.26;73.90;101931.34;5073499;28;19916;-84
2023/01/09 09:12:34;;;;;;;;;;;;;;;10.27;73.43;101930.56;5088992;28;20294;-85
2023/01/09 09:15:11;;;;;;;;;;;;;;;10.26;73.68;101927.81;5073616;28;20025;-84
2023/01/09 09:17:39;;;;;;;;;;;;;;;10.25;73.92;101924.31;5073101;28;19925;-86
2023/01/09 09:20:05;;;;;;;;;;;;;;;10.24;74.02;101918.97;5102327;28;20305;-86
2023/01/09 09:22:30;;;;;;;;;;;;;;;10.27;73.51;101914.88;5088851;28;19919;-85
2023/01/09 09:24:55;;;;;;;;;;;;;;;10.29;73.71;101910.72;5073197;28;19912;-85
2023/01/09 09:27:21;;;;;;;;;;;;;;;10.22;73.65;101913.63;5088597;28;19913;-85
2023/01/09 09:29:46;;;;;;;;;;;;;;;10.21;74.09;101904.00;5055953;28;19915;-85
2023/01/09 09:32:12;;;;;;;;;;;;;;;10.24;73.97;101904.22;5088569;28;19938;-85
2023/01/09 09:34:37;;;;;;;;;;;;;;;10.25;73.97;101902.53;5071911;28;19963;-85
2023/01/09 09:37:03;;;;;;;;;;;;;;;10.23;73.99;101898.91;5072565;28;19939;-84
2023/01/09 09:39:28;;;;;;;;;;;;;;;10.22;74.00;101897.06;5072805;28;19924;-85
2023/01/09 09:45:03;;;;;;;;;;;;;;;10.22;73.75;101886.63;5072864;28;19999;-85
2023/01/09 09:47:29;;;;;;;;;;;;;;;10.20;74.13;101878.66;5100284;28;19927;-85
2023/01/09 09:49:57;;;;;;;;;;;;;;;10.19;73.90;101872.56;5075492;28;19912;-85
2023/01/09 09:52:38;;;;;;;;;;;;;;;10.22;74.09;101873.56;5078186;28;19917;-85
2023/01/09 09:55:05;;;;;;;;;;;;;;;10.21;74.20;101872.66;5090495;28;19916;-85
2023/01/09 09:57:32;;;;;;;;;;;;;;;10.22;73.88;101868.34;5088497;28;20088;-85
2023/01/09 09:59:57;;;;;;;;;;;;;;;10.30;73.76;101867.25;5088004;28;19916;-85
2023/01/09 10:02:24;;;;;;;;;;;;;;;10.28;73.79;101863.56;5088122;28;19973;-84
2023/01/09 10:04:50;;;;;;;;;;;;;;;10.24;73.82;101854.59;5088101;28;20293;-85
2023/01/09 10:07:26;;;;;;;;;;;;;;;10.24;73.68;101853.72;5087930;28;19913;-84
2023/01/09 10:09:56;;;;;;;;;;;;;;;10.21;73.80;101843.06;5087869;28;19913;-85
2023/01/09 10:12:26;;;;;;;;;;;;;;;10.27;73.74;101849.63;5087751;28;19948;-85
2023/01/09 10:14:56;;;;;;;;;;;;;;;10.18;74.22;101830.66;5072204;28;19912;-85
2023/01/09 10:17:31;;;;;;;;;;;;;;;10.23;74.23;101836.25;5088058;28;19923;-85
2023/01/09 10:20:00;;;;;;;;;;;;;;;10.28;73.74;101829.63;5100046;28;20457;-86
2023/01/09 10:22:35;;;;;;;;;;;;;;;10.31;73.94;101827.31;5072491;28;19917;-84
2023/01/09 10:25:11;;;;;;;;;;;;;;;10.31;73.91;101824.69;5086345;28;19919;-85
2023/01/09 10:27:55;;;;;;;;;;;;;;;10.28;74.05;101814.88;5088078;28;19919;-84
2023/01/09 10:30:24;;;;;;;;;;;;;;;10.25;73.58;101811.16;5088049;28;19919;-85
2023/01/09 10:32:55;;;;;;;;;;;;;;;10.18;74.06;101809.78;5087870;28;19923;-85
2023/01/09 10:35:37;;;;;;;;;;;;;;;10.17;74.34;101813.19;5087959;28;19924;-85
2023/01/09 10:38:03;;;;;;;;;;;;;;;10.13;74.17;101801.63;5065743;28;19921;-85
2023/01/09 10:40:33;;;;;;;;;;;;;;;10.18;74.44;101797.66;5087846;28;19923;-85
2023/01/09 10:43:06;;;;;;;;;;;;;;;10.22;73.93;101801.38;5087929;28;20450;-85
2023/01/09 10:45:39;;;;;;;;;;;;;;;10.23;74.08;101792.75;5098206;28;20042;-86
2023/01/09 10:48:20;;;;;;;;;;;;;;;10.18;74.37;101795.06;5087086;28;19920;-86
2023/01/09 10:50:46;;;;;;;;;;;;;;;10.19;74.51;101789.00;5086665;28;19995;-85
2023/01/09 10:53:17;;;;;;;;;;;;;;;10.18;74.27;101787.22;5087350;28;20396;-86
2023/01/09 10:55:48;;;;;;;;;;;;;;;10.16;74.17;101772.25;5086304;28;19917;-85
2023/01/09 10:58:15;;;;;;;;;;;;;;;10.15;74.51;101766.09;5071331;28;19959;-85
2023/01/09 11:00:41;;;;;;;;;;;;;;;10.15;74.52;101763.50;5087122;28;20041;-85
2023/01/09 11:03:10;;;;;;;;;;;;;;;10.13;74.75;101758.97;5091316;28;20361;-85
2023/01/09 11:05:36;;;;;;;;;;;;;;;10.18;74.20;101758.50;5070829;28;20449;-85
2023/01/09 11:08:07;;;;;;;;;;;;;;;10.14;74.59;101752.97;5071073;28;20050;-85
2023/01/09 11:10:56;;;;;;;;;;;;;;;10.14;74.57;101753.88;5071241;28;20392;-84
2023/01/09 11:13:25;;;;;;;;;;;;;;;10.19;74.49;101760.31;5053173;28;19913;-85
2023/01/09 11:15:58;;;;;;;;;;;;;;;10.20;74.32;101758.59;5071312;28;19914;-85
2023/01/09 11:18:23;;;;;;;;;;;;;;;10.17;74.59;101748.84;5072516;28;19929;-85
2023/01/09 11:20:49;;;;;;;;;;;;;;;10.18;74.63;101744.53;5092991;28;20094;-85
2023/01/09 11:23:22;;;;;;;;;;;;;;;10.20;74.22;101742.94;5094695;28;20358;-85
2023/01/09 11:25:51;;;;;;;;;;;;;;;10.14;74.52;101734.69;5069377;28;20033;-85
2023/01/09 11:28:17;;;;;;;;;;;;;;;10.17;74.67;101741.00;5085589;28;19919;-85
2023/01/09 11:30:52;;;;;;;;;;;;;;;10.14;74.54;101732.97;5071019;28;19921;-85
2023/01/09 11:33:19;;;;;;;;;;;;;;;10.20;74.45;101729.88;5073750;28;19920;-85
2023/01/09 11:35:58;;;;;;;;;;;;;;;10.19;74.16;101730.69;5095074;28;20013;-85
2023/01/09 11:38:23;;;;;;;;;;;;;;;10.16;74.26;101728.78;5086103;28;19916;-85
2023/01/09 11:41:09;;;;;;;;;;;;;;;10.15;74.32;101724.34;5086672;28;19920;-85
2023/01/09 11:43:36;;;;;;;;;;;;;;;10.20;74.61;101727.28;5049767;28;19919;-85
2023/01/09 11:46:07;;;;;;;;;;;;;;;10.16;74.47;101726.16;5076627;28;19913;-85
2023/01/09 11:48:38;;;;;;;;;;;;;;;10.19;74.40;101734.19;5091442;28;19981;-85
2023/01/09 11:51:08;;;;;;;;;;;;;;;10.21;74.05;101734.31;5078519;28;19919;-84
2023/01/09 11:54:03;;;;;;;;;;;;;;;10.18;74.59;101731.47;5089480;28;19920;-85
2023/01/09 11:56:28;;;;;;;;;;;;;;;10.22;74.18;101730.91;5066891;28;19922;-85
2023/01/09 11:58:54;;;;;;;;;;;;;;;10.23;74.38;101724.91;5089280;28;20007;-85
2023/01/09 12:01:19;;;;;;;;;;;;;;;10.30;74.41;101721.94;5090673;28;20404;-84
2023/01/09 12:03:47;;;;;;;;;;;;;;;10.31;74.17;101726.38;5074839;28;20000;-85
2023/01/09 12:06:25;;;;;;;;;;;;;;;10.35;73.78;101724.88;5090337;28;20377;-85
2023/01/09 12:08:50;;;;;;;;;;;;;;;10.29;74.16;101719.22;5090272;28;20401;-85
2023/01/09 12:11:34;;;;;;;;;;;;;;;10.34;74.09;101720.47;5089862;28;19997;-85
2023/01/09 12:14:09;;;;;;;;;;;;;;;10.36;73.88;101722.38;5079918;28;20286;-85
2023/01/09 12:16:36;;;;;;;;;;;;;;;10.32;73.99;101714.22;5083914;28;19912;-85
2023/01/09 12:19:07;;;;;;;;;;;;;;;10.31;74.17;101710.72;5105995;28;19920;-85
2023/01/09 12:21:34;;;;;;;;;;;;;;;10.29;74.41;101708.78;5078593;28;20420;-85
2023/01/09 12:24:08;;;;;;;;;;;;;;;10.31;74.24;101692.44;5098049;28;19920;-84
2023/01/09 12:26:52;;;;;;;;;;;;;;;10.31;74.39;101699.38;5076179;28;19993;-85
2023/01/09 12:29:36;;;;;;;;;;;;;;;10.32;73.87;101691.63;5077770;28;20425;-85
2023/01/09 12:32:05;;;;;;;;;;;;;;;10.42;73.87;101690.56;5067678;28;19916;-85
2023/01/09 12:34:37;;;;;;;;;;;;;;;10.39;73.83;101698.16;5088126;28;19920;-85
2023/01/09 12:37:22;;;;;;;;;;;;;;;10.39;73.88;101692.94;5089552;28;20006;-85
2023/01/09 12:39:50;;;;;;;;;;;;;;;10.47;73.70;101686.56;5068102;28;19912;-85
2023/01/09 12:42:19;;;;;;;;;;;;;;;10.44;73.84;101688.06;5090007;28;20305;-86
2023/01/09 12:44:47;;;;;;;;;;;;;;;10.43;73.88;101684.53;5092046;28;19912;-85
2023/01/09 12:47:25;;;;;;;;;;;;;;;10.45;73.73;101687.25;5089788;28;19917;-85
2023/01/09 12:50:01;;;;;;;;;;;;;;;10.46;73.73;101679.53;5068027;28;19913;-85
2023/01/09 12:52:28;;;;;;;;;;;;;;;10.47;73.80;101672.59;5088947;28;20011;-85